Time;durP1;ratioP1;P1;durP2;ratioP2;P2;SDS_P1;SDS_P2;PMS_P1;PMS_P2;Temp;Humidity;BMP_temperature;BMP_pressure;BME280_temperature;BME280_humidity;BME280_pressure;Samples;Min_cycle;Max_cycle;Signal;HPM_P1;HPM_P2
2023/06/02 00:02:14;;;;;;;8.90;2.28;;;;;;;11.43;84.13;102044.84;4998318;28;20030;-94
2023/06/02 00:04:40;;;;;;;6.67;2.63;;;;;;;11.40;84.66;102045.31;4980581;28;20033;-94
2023/06/02 00:07:07;;;;;;;14.87;2.53;;;;;;;11.35;84.01;102041.47;4997629;28;20843;-94
2023/06/02 00:09:37;;;;;;;13.20;2.45;;;;;;;11.23;84.19;102034.47;4979694;28;20034;-93
2023/06/02 00:12:03;;;;;;;8.35;2.80;;;;;;;11.26;83.85;102037.50;4994430;28;20587;-94
2023/06/02 00:14:28;;;;;;;7.53;2.40;;;;;;;11.23;84.25;102037.16;4996656;28;20034;-94
2023/06/02 00:16:55;;;;;;;8.53;2.70;;;;;;;11.18;84.84;102043.19;4968145;28;20468;-95
2023/06/02 00:19:23;;;;;;;9.32;2.80;;;;;;;11.10;84.83;102032.81;4959932;28;20090;-94
2023/06/02 00:21:49;;;;;;;7.37;2.80;;;;;;;11.06;85.49;102032.44;4979603;28;20050;-92
2023/06/02 00:24:14;;;;;;;8.47;3.00;;;;;;;11.01;85.88;102035.84;4978005;28;20298;-93
2023/06/02 00:26:39;;;;;;;8.80;2.40;;;;;;;11.00;85.39;102018.09;4986562;28;20109;-94
2023/06/02 00:29:05;;;;;;;10.07;2.80;;;;;;;10.97;85.19;102039.22;4996529;28;20065;-93
2023/06/02 00:31:30;;;;;;;13.17;3.10;;;;;;;10.97;85.42;102039.22;4997899;28;20041;-94
2023/06/02 00:33:56;;;;;;;9.10;2.65;;;;;;;11.04;85.04;102035.38;4997505;28;20121;-93
2023/06/02 00:36:22;;;;;;;5.72;2.58;;;;;;;11.01;85.06;102041.19;5000113;28;20042;-93
2023/06/02 00:38:50;;;;;;;8.40;2.47;;;;;;;11.02;84.61;102032.09;5006888;28;20043;-94
2023/06/02 00:41:17;;;;;;;16.00;3.17;;;;;;;10.98;83.66;102020.19;5001466;28;20078;-94
2023/06/02 00:43:43;;;;;;;5.83;2.30;;;;;;;10.95;84.29;102030.56;4982447;28;20042;-93
2023/06/02 00:46:08;;;;;;;7.20;2.50;;;;;;;10.91;84.56;102031.03;4982137;28;20266;-93
2023/06/02 00:48:33;;;;;;;8.43;2.47;;;;;;;10.86;84.04;102032.78;4994562;28;20544;-94
2023/06/02 00:50:59;;;;;;;12.87;2.70;;;;;;;10.85;84.66;102021.25;4997643;28;20018;-94
2023/06/02 00:53:25;;;;;;;7.55;2.20;;;;;;;10.86;84.69;102033.59;4996945;28;20053;-93
2023/06/02 00:55:52;;;;;;;14.07;2.70;;;;;;;10.85;83.26;102034.66;4994762;28;20105;-94
2023/06/02 00:58:19;;;;;;;12.35;3.00;;;;;;;10.70;83.45;102019.00;4995784;28;20034;-94
2023/06/02 01:00:47;;;;;;;7.88;2.80;;;;;;;10.63;82.60;102020.13;4995266;28;20382;-94
2023/06/02 01:03:17;;;;;;;14.65;2.95;;;;;;;10.47;82.38;102002.84;4995153;28;20133;-93
2023/06/02 01:05:45;;;;;;;9.73;2.70;;;;;;;10.43;82.86;102015.88;4994419;28;20024;-93
2023/06/02 01:08:12;;;;;;;12.27;2.60;;;;;;;10.52;81.88;102043.19;4995952;28;20421;-94
2023/06/02 01:10:38;;;;;;;12.35;2.95;;;;;;;10.45;82.01;102044.06;4978880;28;20496;-94
2023/06/02 01:13:04;;;;;;;6.40;2.37;;;;;;;10.34;83.01;102031.44;5005241;28;20026;-92
2023/06/02 01:15:29;;;;;;;16.67;2.92;;;;;;;10.35;81.81;102033.06;4998784;28;20027;-94
2023/06/02 01:17:57;;;;;;;11.67;2.60;;;;;;;10.40;82.11;102037.75;5020857;28;20035;-93
2023/06/02 01:20:23;;;;;;;10.18;2.72;;;;;;;10.24;81.24;102028.44;4979249;28;20475;-93
2023/06/02 01:22:58;;;;;;;13.48;2.50;;;;;;;10.32;82.33;102043.44;4977988;28;20015;-94
2023/06/02 01:25:25;;;;;;;9.98;2.83;;;;;;;10.32;81.79;102036.19;5007272;28;20033;-94
2023/06/02 01:27:51;;;;;;;16.40;2.88;;;;;;;10.35;82.30;102040.25;4974594;28;20379;-94
2023/06/02 01:30:18;;;;;;;8.73;2.37;;;;;;;10.38;82.92;102047.84;4980399;28;20149;-93
2023/06/02 01:33:05;;;;;;;10.88;3.00;;;;;;;10.31;82.28;102031.88;4994971;28;20042;-93
2023/06/02 01:35:34;;;;;;;12.25;2.75;;;;;;;10.22;82.43;102028.69;4995467;28;20034;-94
2023/06/02 01:38:00;;;;;;;9.05;2.30;;;;;;;10.11;82.71;102010.72;4974705;28;20547;-94
2023/06/02 01:40:26;;;;;;;11.00;2.90;;;;;;;10.20;82.69;102017.38;4978109;28;20023;-93
2023/06/02 01:42:53;;;;;;;19.70;2.70;;;;;;;10.24;82.97;102017.72;4977564;28;20394;-94
2023/06/02 01:45:20;;;;;;;9.63;2.60;;;;;;;10.27;83.40;102010.09;4993492;28;20050;-94
2023/06/02 01:47:45;;;;;;;11.02;2.33;;;;;;;10.37;82.71;102017.59;4990795;28;20082;-93
2023/06/02 01:50:11;;;;;;;12.53;2.37;;;;;;;10.40;82.97;102025.19;4978058;28;20054;-94
2023/06/02 01:52:36;;;;;;;11.15;2.50;;;;;;;10.39;82.70;102028.91;4977377;28;20452;-94
2023/06/02 01:55:02;;;;;;;10.60;2.50;;;;;;;10.41;82.94;102029.50;4978480;28;20095;-94
2023/06/02 01:57:29;;;;;;;17.02;2.92;;;;;;;10.39;82.80;102022.72;4964389;28;20023;-94
2023/06/02 01:59:55;;;;;;;18.10;2.43;;;;;;;10.46;82.60;102034.19;4983635;28;20023;-94
2023/06/02 02:02:20;;;;;;;13.32;2.30;;;;;;;10.40;83.13;102017.16;4997480;28;20062;-92
2023/06/02 02:04:45;;;;;;;10.93;2.43;;;;;;;10.42;83.17;102031.13;4996477;28;20026;-92
2023/06/02 02:07:13;;;;;;;17.27;2.77;;;;;;;10.37;82.70;102028.28;4961963;28;20038;-93
2023/06/02 02:09:39;;;;;;;12.68;2.55;;;;;;;10.29;83.29;102015.19;4962586;28;20031;-93
2023/06/02 02:12:05;;;;;;;14.30;2.90;;;;;;;10.30;83.17;102024.88;4990963;28;20037;-93
2023/06/02 02:14:30;;;;;;;7.95;2.28;;;;;;;10.36;83.74;102023.16;4979929;28;20066;-93
2023/06/02 02:16:56;;;;;;;11.73;2.30;;;;;;;10.36;84.25;102023.97;4983224;28;20055;-93
2023/06/02 02:19:23;;;;;;;7.63;2.22;;;;;;;10.36;84.08;102017.78;5000395;28;20081;-94
2023/06/02 02:21:48;;;;;;;9.98;2.58;;;;;;;10.35;83.64;102022.34;4998763;28;20023;-94
2023/06/02 02:24:16;;;;;;;11.50;2.53;;;;;;;10.41;83.53;102026.81;4998639;28;20405;-93
2023/06/02 02:26:41;;;;;;;10.77;2.20;;;;;;;10.40;83.42;102022.53;4989670;28;20034;-94
2023/06/02 02:29:06;;;;;;;17.30;2.73;;;;;;;10.36;84.48;102013.25;5001315;28;20113;-92
2023/06/02 02:31:32;;;;;;;12.57;2.97;;;;;;;10.35;84.18;102013.47;4981659;28;20030;-95
2023/06/02 02:33:57;;;;;;;14.77;2.73;;;;;;;10.50;83.90;102026.50;4986168;28;20031;-94
2023/06/02 02:36:22;;;;;;;8.17;2.40;;;;;;;10.40;83.73;102019.84;4978129;28;20022;-93
2023/06/02 02:38:47;;;;;;;13.38;2.30;;;;;;;10.39;84.32;102022.72;4978068;28;20553;-94
2023/06/02 02:41:14;;;;;;;12.60;2.20;;;;;;;10.40;84.36;102024.38;4994562;28;20039;-94
2023/06/02 02:43:39;;;;;;;11.23;2.80;;;;;;;10.38;84.57;102023.75;4998640;28;20165;-94
2023/06/02 02:46:04;;;;;;;9.37;2.20;;;;;;;10.39;84.53;102009.34;4998388;28;20065;-94
2023/06/02 02:48:29;;;;;;;14.67;2.50;;;;;;;10.44;84.99;102017.53;4995964;28;20101;-94
2023/06/02 02:50:55;;;;;;;13.17;2.50;;;;;;;10.49;84.54;102011.47;4963254;28;20086;-94
2023/06/02 02:53:21;;;;;;;13.93;2.43;;;;;;;10.45;84.80;102006.56;4978996;28;20439;-93
2023/06/02 02:55:50;;;;;;;13.10;2.53;;;;;;;10.45;85.21;102013.78;4995650;28;20042;-94
2023/06/02 02:58:16;;;;;;;13.77;3.30;;;;;;;10.44;85.53;102017.53;5014354;28;20120;-94
2023/06/02 03:00:41;;;;;;;11.82;2.38;;;;;;;10.47;85.33;102014.38;4997276;28;20065;-93
2023/06/02 03:03:07;;;;;;;14.83;2.90;;;;;;;10.41;86.22;102016.09;4998435;28;20034;-93
2023/06/02 03:05:34;;;;;;;12.93;2.87;;;;;;;10.37;86.11;102017.59;4997741;28;20475;-94
2023/06/02 03:08:01;;;;;;;10.65;2.83;;;;;;;10.34;86.91;102018.03;4976171;28;20454;-96
2023/06/02 03:10:30;;;;;;;14.07;2.85;;;;;;;10.38;87.16;102026.41;5002962;28;20124;-95
2023/06/02 03:13:03;;;;;;;13.10;2.90;;;;;;;10.40;87.47;102025.19;5011737;28;20031;-95
2023/06/02 03:15:33;;;;;;;11.45;3.40;;;;;;;10.15;87.31;101996.63;4970487;28;20026;-96
2023/06/02 03:25:46;;;;;;;11.03;2.80;;;;;;;10.24;86.91;102013.22;5484198;23;20294;-96
2023/06/02 03:28:19;;;;;;;7.95;2.80;;;;;;;10.21;86.88;102010.19;5011717;28;20130;-96
2023/06/02 03:30:51;;;;;;;13.27;2.90;;;;;;;10.17;85.83;102012.47;5125179;23;20047;-96
2023/06/02 03:33:17;;;;;;;7.15;2.72;;;;;;;10.19;85.33;102025.66;4959318;29;20030;-90
2023/06/02 03:35:42;;;;;;;11.03;2.60;;;;;;;10.17;85.79;102030.41;4954640;28;20027;-91
2023/06/02 03:38:08;;;;;;;15.60;3.27;;;;;;;10.14;85.67;102039.69;4948137;28;20496;-90
2023/06/02 03:40:34;;;;;;;17.73;3.30;;;;;;;10.10;84.84;102039.34;4954475;29;20023;-91
2023/06/02 03:42:59;;;;;;;9.27;2.75;;;;;;;10.07;84.48;102039.78;4953679;29;20034;-90
2023/06/02 03:45:24;;;;;;;19.92;3.13;;;;;;;10.02;84.74;102034.31;4953378;29;20031;-90
2023/06/02 03:47:50;;;;;;;11.87;2.83;;;;;;;10.01;85.03;102038.03;4955868;29;20114;-90
2023/06/02 03:50:16;;;;;;;14.63;3.03;;;;;;;10.04;83.93;102045.63;4953678;29;20035;-91
2023/06/02 03:52:41;;;;;;;18.85;3.45;;;;;;;10.03;84.00;102040.47;4953982;29;20035;-91
2023/06/02 03:55:07;;;;;;;14.43;2.80;;;;;;;10.04;84.93;102042.94;4953699;29;20015;-90
2023/06/02 03:57:34;;;;;;;8.93;2.75;;;;;;;10.05;84.99;102041.88;4954565;28;20035;-90
2023/06/02 03:59:59;;;;;;;14.80;3.45;;;;;;;10.09;84.42;102040.38;4954579;29;20541;-91
2023/06/02 04:02:25;;;;;;;10.40;2.60;;;;;;;10.17;83.90;102044.59;4953620;29;20035;-90
2023/06/02 04:04:51;;;;;;;8.00;2.92;;;;;;;10.20;84.46;102046.84;4952036;28;20031;-90
2023/06/02 04:07:16;;;;;;;10.83;2.67;;;;;;;10.17;83.95;102044.59;4950371;28;20031;-89
2023/06/02 04:09:42;;;;;;;12.45;3.25;;;;;;;10.17;85.04;102046.47;4935452;29;20456;-89
2023/06/02 04:12:07;;;;;;;11.67;3.17;;;;;;;10.17;85.31;102058.00;4952933;29;20039;-89
2023/06/02 04:14:33;;;;;;;9.43;2.90;;;;;;;10.21;85.48;102058.41;4954769;28;20020;-89
2023/06/02 04:16:58;;;;;;;11.25;2.50;;;;;;;10.23;85.64;102064.31;4951613;28;20027;-89
2023/06/02 04:19:24;;;;;;;12.40;2.43;;;;;;;10.19;85.82;102047.09;4952977;29;20538;-91
2023/06/02 04:21:49;;;;;;;14.53;3.20;;;;;;;10.20;85.13;102057.56;4952562;29;20031;-90
2023/06/02 04:24:15;;;;;;;12.77;2.55;;;;;;;10.24;84.13;102047.19;4952341;29;20139;-90
2023/06/02 04:26:40;;;;;;;18.60;3.00;;;;;;;10.24;83.87;102050.72;4951052;28;20058;-91
2023/06/02 04:29:05;;;;;;;9.70;3.03;;;;;;;10.23;84.29;102054.44;4962758;28;20039;-90
2023/06/02 04:31:42;;;;;;;13.07;2.77;;;;;;;10.20;83.91;102046.84;4968678;28;20030;-90
2023/06/02 04:34:08;;;;;;;13.95;2.92;;;;;;;10.12;84.04;102055.19;4950192;28;20043;-92
2023/06/02 04:36:34;;;;;;;14.00;3.20;;;;;;;10.14;84.60;102048.56;4973574;28;20027;-89
2023/06/02 04:39:00;;;;;;;10.18;2.90;;;;;;;10.12;83.61;102050.66;4970697;28;20038;-89
2023/06/02 04:41:25;;;;;;;11.97;2.70;;;;;;;10.16;83.17;102053.69;4953647;28;20446;-92
2023/06/02 04:43:51;;;;;;;8.63;2.67;;;;;;;10.14;83.43;102051.25;4957873;29;20040;-94
2023/06/02 04:46:16;;;;;;;10.07;2.67;;;;;;;10.13;84.13;102054.97;4938766;28;20057;-93
2023/06/02 04:48:41;;;;;;;11.43;2.90;;;;;;;10.15;83.97;102057.41;4954017;29;20027;-91
2023/06/02 04:51:07;;;;;;;14.50;3.37;;;;;;;10.13;83.00;102041.56;4954671;29;20055;-92
2023/06/02 04:53:32;;;;;;;7.33;2.93;;;;;;;10.14;82.53;102048.56;4955025;28;20414;-91
2023/06/02 04:55:58;;;;;;;11.10;2.67;;;;;;;10.21;83.59;102056.53;4954908;29;20065;-91
2023/06/02 04:58:25;;;;;;;9.87;2.23;;;;;;;10.36;81.61;102064.19;4952897;29;20303;-91
2023/06/02 05:00:51;;;;;;;8.23;2.20;;;;;;;10.39;81.64;102068.28;4953142;29;20106;-90
2023/06/02 05:03:16;;;;;;;10.18;2.35;;;;;;;10.36;81.92;102060.66;4953032;29;20102;-91
2023/06/02 05:05:41;;;;;;;11.83;2.50;;;;;;;10.40;80.52;102060.03;4953794;29;20035;-90
2023/06/02 05:08:06;;;;;;;9.33;2.30;;;;;;;10.39;80.06;102069.13;4953630;29;20027;-91
2023/06/02 05:10:32;;;;;;;8.67;2.43;;;;;;;10.44;79.87;102076.47;4954321;28;20430;-90
2023/06/02 05:12:57;;;;;;;10.47;2.10;;;;;;;10.49;80.67;102070.41;4955338;29;20035;-90
2023/06/02 05:15:22;;;;;;;10.27;2.27;;;;;;;10.50;79.18;102078.22;4954175;29;20034;-92
2023/06/02 05:17:48;;;;;;;7.55;1.90;;;;;;;10.50;80.10;102075.53;4937300;29;20039;-90
2023/06/02 05:20:13;;;;;;;6.40;1.90;;;;;;;10.51;79.27;102079.84;4957991;29;20125;-90
2023/06/02 05:22:39;;;;;;;17.00;2.93;;;;;;;10.50;79.04;102078.22;4955539;29;20737;-91
2023/06/02 05:25:04;;;;;;;7.97;2.00;;;;;;;10.51;78.89;102084.41;4954445;29;20045;-91
2023/06/02 05:27:30;;;;;;;7.28;1.85;;;;;;;10.52;77.92;102069.97;4955819;28;20155;-91
2023/06/02 05:29:55;;;;;;;11.30;1.73;;;;;;;10.60;78.49;102077.69;4962793;28;20020;-92
2023/06/02 05:32:24;;;;;;;9.38;1.95;;;;;;;10.67;77.81;102078.41;4975560;29;20055;-92
2023/06/02 05:34:49;;;;;;;11.87;1.60;;;;;;;10.66;77.31;102075.97;4966840;28;20046;-92
2023/06/02 05:37:14;;;;;;;7.63;1.90;;;;;;;10.73;77.88;102079.38;4947911;29;20767;-94
2023/06/02 05:39:41;;;;;;;11.00;1.80;;;;;;;10.81;78.28;102078.22;4959565;28;20075;-93
2023/06/02 05:42:07;;;;;;;9.73;2.00;;;;;;;10.85;77.26;102084.78;4964278;28;20027;-92
2023/06/02 05:44:32;;;;;;;12.97;2.07;;;;;;;10.85;76.80;102084.78;4966962;29;20554;-92
2023/06/02 05:46:57;;;;;;;8.73;1.87;;;;;;;10.86;75.98;102081.84;4965115;29;20032;-92
2023/06/02 05:49:23;;;;;;;13.15;2.08;;;;;;;10.94;76.86;102083.41;4965620;28;20090;-91
2023/06/02 05:51:48;;;;;;;9.50;2.57;;;;;;;10.96;76.08;102086.66;4961538;29;20058;-91
2023/06/02 05:54:13;;;;;;;12.03;2.10;;;;;;;10.92;75.67;102085.50;4960393;29;20020;-90
2023/06/02 05:56:39;;;;;;;10.73;2.20;;;;;;;10.94;76.52;102080.72;4958233;28;20410;-92
2023/06/02 05:59:05;;;;;;;12.20;2.07;;;;;;;10.98;76.18;102100.66;4957408;29;20035;-91
2023/06/02 06:01:31;;;;;;;12.68;2.40;;;;;;;11.02;77.43;102091.13;4953368;28;20027;-91
2023/06/02 06:03:56;;;;;;;16.63;3.20;;;;;;;11.03;75.95;102087.38;4956195;28;20040;-92
2023/06/02 06:06:22;;;;;;;9.43;2.10;;;;;;;11.16;77.53;102086.38;4958788;28;20031;-91
2023/06/02 06:08:47;;;;;;;11.85;2.25;;;;;;;11.21;76.98;102089.19;4954040;28;20086;-91
2023/06/02 06:11:13;;;;;;;9.87;2.07;;;;;;;11.12;76.03;102070.97;4957308;29;20027;-90
2023/06/02 06:13:39;;;;;;;10.07;2.50;;;;;;;11.19;76.06;102085.06;4951308;28;20031;-92
2023/06/02 06:16:04;;;;;;;11.53;2.40;;;;;;;11.12;76.38;102084.38;4951078;28;20294;-89
2023/06/02 06:18:30;;;;;;;15.43;2.20;;;;;;;11.14;75.20;102090.31;4952809;28;20286;-90
2023/06/02 06:20:55;;;;;;;14.43;2.33;;;;;;;11.22;75.73;102079.25;4945122;29;20035;-88
2023/06/02 06:23:20;;;;;;;11.13;2.40;;;;;;;11.18;74.29;102080.75;4956290;29;20042;-89
2023/06/02 06:25:47;;;;;;;16.20;2.05;;;;;;;11.19;74.71;102082.41;4936819;29;20055;-89
2023/06/02 06:28:12;;;;;;;11.27;2.07;;;;;;;11.25;75.21;102083.34;4953141;29;20028;-89
2023/06/02 06:30:40;;;;;;;14.83;2.00;;;;;;;11.47;74.96;102089.78;4948208;29;20346;-90
2023/06/02 06:33:06;;;;;;;11.20;2.30;;;;;;;11.54;74.52;102091.53;4944505;28;20030;-90
2023/06/02 06:35:31;;;;;;;13.07;2.75;;;;;;;11.66;72.88;102085.13;4919669;29;20031;-90
2023/06/02 06:37:56;;;;;;;12.83;1.90;;;;;;;11.80;72.39;102093.72;4952025;29;20511;-89
2023/06/02 06:40:23;;;;;;;12.30;1.90;;;;;;;11.88;71.65;102100.59;4954474;28;20028;-90
2023/06/02 06:42:48;;;;;;;12.07;2.38;;;;;;;11.89;71.43;102098.75;4937673;29;20050;-90
2023/06/02 06:45:13;;;;;;;7.30;1.90;;;;;;;12.03;70.86;102099.34;4952829;28;20379;-90
2023/06/02 06:47:39;;;;;;;11.70;2.03;;;;;;;12.13;70.68;102094.19;4956429;29;20423;-90
2023/06/02 06:50:05;;;;;;;7.95;2.15;;;;;;;12.19;68.74;102092.41;4956018;28;20534;-90
2023/06/02 06:52:31;;;;;;;14.73;2.23;;;;;;;12.26;68.51;102099.28;4935082;29;20129;-91
2023/06/02 06:54:56;;;;;;;9.32;2.17;;;;;;;12.31;68.03;102090.53;4955699;29;20067;-91
2023/06/02 06:57:21;;;;;;;6.03;1.80;;;;;;;12.43;67.65;102090.47;4957407;29;20388;-92
2023/06/02 06:59:50;;;;;;;9.23;2.10;;;;;;;12.39;68.63;102083.97;4945751;29;20066;-91
2023/06/02 07:02:15;;;;;;;12.97;2.10;;;;;;;12.41;68.14;102085.34;4955127;29;20282;-91
2023/06/02 07:04:41;;;;;;;11.32;2.20;;;;;;;12.48;67.56;102095.94;4953910;29;20031;-90
2023/06/02 07:07:06;;;;;;;12.43;2.23;;;;;;;12.51;67.24;102084.72;4954110;29;20033;-90
2023/06/02 07:09:32;;;;;;;13.00;2.08;;;;;;;12.64;66.96;102093.56;4955012;29;20027;-91
2023/06/02 07:11:57;;;;;;;12.37;2.53;;;;;;;12.78;66.63;102094.88;4954321;29;20023;-90
2023/06/02 07:14:22;;;;;;;14.13;2.33;;;;;;;13.09;66.99;102097.28;4953806;29;20039;-90
2023/06/02 07:16:53;;;;;;;9.43;2.37;;;;;;;13.27;65.74;102090.88;4957018;29;20034;-91
2023/06/02 07:19:19;;;;;;;13.30;2.42;;;;;;;13.66;64.60;102099.03;4955572;29;20061;-90
2023/06/02 07:21:47;;;;;;;10.63;2.00;;;;;;;13.83;63.54;102095.47;4957396;29;20028;-90
2023/06/02 07:24:13;;;;;;;9.75;1.90;;;;;;;13.98;60.59;102106.47;4955510;29;20035;-90
2023/06/02 07:26:38;;;;;;;11.57;2.00;;;;;;;13.99;61.19;102094.63;4956262;29;20034;-90
2023/06/02 07:29:03;;;;;;;10.63;2.10;;;;;;;14.20;59.64;102103.75;4956054;29;20046;-91
2023/06/02 07:31:29;;;;;;;11.67;1.90;;;;;;;14.26;59.33;102099.25;4954782;29;20019;-90
2023/06/02 07:33:54;;;;;;;12.13;2.20;;;;;;;14.36;58.22;102107.47;4954670;28;20090;-91
2023/06/02 07:36:19;;;;;;;11.88;2.20;;;;;;;14.34;58.56;102120.38;4934682;29;20034;-91
2023/06/02 07:38:45;;;;;;;10.90;1.80;;;;;;;14.40;58.27;102118.56;4953406;29;20023;-91
2023/06/02 07:41:10;;;;;;;9.50;2.00;;;;;;;14.45;58.36;102099.75;4955547;29;20074;-92
2023/06/02 07:43:37;;;;;;;8.40;2.00;;;;;;;14.59;57.53;102113.66;4939403;29;20028;-92
2023/06/02 07:46:03;;;;;;;8.00;2.25;;;;;;;14.82;58.16;102111.75;4955447;29;20478;-92
2023/06/02 07:48:29;;;;;;;9.90;1.88;;;;;;;14.80;57.59;102113.88;4953867;29;20031;-91
2023/06/02 07:50:54;;;;;;;6.90;1.60;;;;;;;14.81;55.96;102096.63;4952505;28;20069;-91
2023/06/02 07:53:19;;;;;;;8.50;2.37;;;;;;;15.02;55.48;102094.09;4954515;28;20283;-92
2023/06/02 07:55:45;;;;;;;7.47;2.03;;;;;;;15.17;55.24;102098.81;4955840;28;20046;-91
2023/06/02 07:58:10;;;;;;;13.70;2.40;;;;;;;15.44;55.30;102094.16;4954657;29;20454;-93
2023/06/02 08:00:38;;;;;;;9.68;2.20;;;;;;;15.66;54.31;102103.22;4937364;29;20031;-91
2023/06/02 08:03:03;;;;;;;10.73;2.23;;;;;;;15.76;53.46;102100.56;4954071;29;20031;-91
2023/06/02 08:05:28;;;;;;;10.68;2.20;;;;;;;15.78;53.93;102106.53;4953412;29;20498;-90
2023/06/02 08:07:54;;;;;;;10.87;1.80;;;;;;;15.56;53.19;102102.06;4951736;28;20155;-89
2023/06/02 08:10:19;;;;;;;9.07;1.77;;;;;;;15.41;53.70;102099.28;4951334;28;20119;-92
2023/06/02 08:12:46;;;;;;;10.07;2.07;;;;;;;15.28;54.22;102095.13;4950344;29;21111;-91
2023/06/02 08:15:11;;;;;;;9.68;2.38;;;;;;;15.31;54.15;102094.59;4942945;29;20822;-90
2023/06/02 08:17:37;;;;;;;14.97;2.23;;;;;;;15.29;53.46;102094.06;4941726;28;20093;-90
2023/06/02 08:20:07;;;;;;;13.17;2.70;;;;;;;15.02;53.72;102094.09;4951552;28;20054;-91
2023/06/02 08:22:33;;;;;;;9.68;2.20;;;;;;;14.83;54.74;102095.31;4954621;28;20546;-90
2023/06/02 08:24:59;;;;;;;11.25;2.00;;;;;;;14.74;54.78;102093.31;4952416;29;20110;-90
2023/06/02 08:27:25;;;;;;;15.83;2.27;;;;;;;14.85;54.08;102103.13;4954769;29;20059;-89
2023/06/02 08:29:51;;;;;;;16.75;2.42;;;;;;;14.99;54.24;102100.84;4937126;29;20039;-90
2023/06/02 08:32:18;;;;;;;11.93;2.25;;;;;;;15.54;54.13;102108.81;4951969;28;20243;-91
2023/06/02 08:34:50;;;;;;;12.63;1.93;;;;;;;16.12;52.25;102114.28;4953745;29;20079;-89
2023/06/02 08:37:20;;;;;;;10.38;2.17;;;;;;;16.47;50.36;102114.69;4953893;29;20078;-90
2023/06/02 08:39:47;;;;;;;14.00;3.10;;;;;;;16.78;49.84;102102.03;4952356;29;20411;-91
2023/06/02 08:42:14;;;;;;;13.48;2.50;;;;;;;16.94;49.65;102107.47;4953421;29;20114;-90
2023/06/02 08:44:41;;;;;;;6.25;2.05;;;;;;;16.71;48.90;102098.78;4952014;28;20170;-90
2023/06/02 08:47:12;;;;;;;12.00;2.38;;;;;;;16.07;49.23;102106.16;4950540;29;20570;-91
2023/06/02 08:49:42;;;;;;;11.85;2.67;;;;;;;15.67;51.94;102102.94;4950433;29;20035;-91
2023/06/02 08:52:21;;;;;;;11.73;2.70;;;;;;;15.79;51.76;102094.66;4949780;29;20628;-89
2023/06/02 08:54:47;;;;;;;12.65;2.60;;;;;;;15.77;51.29;102091.38;4952739;29;20070;-88
2023/06/02 08:57:16;;;;;;;11.47;2.37;;;;;;;15.83;52.83;102100.31;4952863;29;20438;-90
2023/06/02 08:59:43;;;;;;;10.93;2.00;;;;;;;15.92;51.25;102079.88;4951770;28;20038;-89
2023/06/02 09:02:09;;;;;;;11.73;2.42;;;;;;;16.37;51.54;102099.25;4936252;29;20414;-92
2023/06/02 09:04:35;;;;;;;11.73;2.28;;;;;;;16.65;48.88;102091.72;4956411;28;20039;-92
2023/06/02 09:07:26;;;;;;;15.43;2.63;;;;;;;16.63;49.47;102102.00;4959111;28;20031;-95
2023/06/02 09:09:53;;;;;;;10.68;2.30;;;;;;;16.56;49.05;102090.63;4956321;28;20107;-94
2023/06/02 09:12:20;;;;;;;7.90;2.15;;;;;;;16.83;50.13;102095.00;4960612;29;20050;-94
2023/06/02 09:14:47;;;;;;;8.57;2.75;;;;;;;17.15;49.33;102107.50;4958558;28;20439;-93
2023/06/02 09:17:29;;;;;;;9.95;2.72;;;;;;;17.16;48.48;102109.13;4925770;29;20035;-93
2023/06/02 09:19:58;;;;;;;8.70;2.40;;;;;;;16.78;47.47;102093.09;4939196;29;20058;-90
2023/06/02 09:22:23;;;;;;;10.90;2.17;;;;;;;16.22;48.46;102097.28;4951222;29;20042;-92
2023/06/02 09:24:50;;;;;;;14.17;2.60;;;;;;;16.12;50.40;102098.06;4942134;29;20035;-92
2023/06/02 09:27:16;;;;;;;12.43;2.50;;;;;;;16.12;50.63;102092.66;4957067;28;20031;-90
2023/06/02 09:29:44;;;;;;;11.23;2.67;;;;;;;16.05;49.63;102084.00;4974710;28;20034;-95
2023/06/02 09:32:17;;;;;;;15.82;2.70;;;;;;;16.26;51.75;102079.47;4971550;28;20065;-94
2023/06/02 09:34:45;;;;;;;9.43;2.30;;;;;;;16.46;50.67;102081.41;4964268;29;20039;-96
2023/06/02 09:37:17;;;;;;;11.85;2.47;;;;;;;16.46;49.91;102086.81;4948493;29;20091;-95
2023/06/02 09:39:52;;;;;;;8.83;2.00;;;;;;;16.68;49.62;102085.78;4950385;29;20031;-96
2023/06/02 09:42:21;;;;;;;9.90;2.60;;;;;;;16.48;49.68;102094.69;4965949;29;20667;-96
2023/06/02 09:45:04;;;;;;;13.90;2.50;;;;;;;16.39;51.72;102085.44;4973871;28;20102;-96
2023/06/02 09:47:36;;;;;;;14.75;2.47;;;;;;;16.35;51.22;102075.16;4959146;28;20028;-96
2023/06/02 09:50:02;;;;;;;10.75;2.70;;;;;;;16.40;50.70;102085.19;4947672;29;20020;-96
2023/06/02 09:52:30;;;;;;;9.50;2.63;;;;;;;16.40;51.00;102076.25;4931792;29;20082;-95
2023/06/02 09:54:56;;;;;;;9.48;2.65;;;;;;;16.69;51.10;102086.59;4950020;29;20039;-96
2023/06/02 09:57:23;;;;;;;9.75;2.47;;;;;;;17.26;49.16;102084.75;4962213;29;20031;-95
2023/06/02 09:59:48;;;;;;;14.53;3.10;;;;;;;17.64;47.68;102087.09;4972178;29;20035;-95
2023/06/02 10:02:14;;;;;;;13.20;2.63;;;;;;;17.93;47.61;102084.56;4974363;29;20027;-95
2023/06/02 10:04:39;;;;;;;9.70;2.20;;;;;;;17.84;48.14;102080.81;4978477;28;20031;-95
2023/06/02 10:07:27;;;;;;;10.60;2.90;;;;;;;17.38;49.17;102077.13;4971619;28;20026;-94
2023/06/02 10:10:34;;;;;;;14.25;2.70;;;;;;;17.92;49.63;102082.94;4962664;28;20020;-94
2023/06/02 10:13:34;;;;;;;12.55;2.58;;;;;;;18.24;47.38;102084.47;4960543;28;20020;-95
2023/06/02 10:16:39;;;;;;;9.80;2.88;;;;;;;17.99;48.81;102079.97;4980789;28;20018;-94
2023/06/02 10:19:42;;;;;;;12.60;2.70;;;;;;;18.05;49.17;102072.63;4965848;29;20031;-94
2023/06/02 10:22:16;;;;;;;11.23;2.40;;;;;;;18.36;48.03;102069.75;4966652;29;20027;-94
2023/06/02 10:25:05;;;;;;;11.47;2.77;;;;;;;18.66;48.46;102070.63;4966772;29;20291;-94
2023/06/02 10:27:34;;;;;;;10.27;2.72;;;;;;;18.46;46.71;102075.09;4966023;29;20573;-95
2023/06/02 10:30:00;;;;;;;11.90;3.28;;;;;;;18.29;48.41;102073.56;4961253;29;20067;-95
2023/06/02 10:32:47;;;;;;;11.50;2.75;;;;;;;18.83;47.85;102078.41;4946754;29;20016;-95
2023/06/02 10:35:14;;;;;;;11.43;2.67;;;;;;;19.18;45.94;102081.94;4947069;29;20046;-96
2023/06/02 10:37:40;;;;;;;12.88;2.70;;;;;;;19.35;45.09;102078.78;4942708;29;20087;-96
2023/06/02 10:40:10;;;;;;;8.90;2.63;;;;;;;19.21;46.79;102074.00;4966478;29;20042;-94
2023/06/02 10:42:36;;;;;;;11.48;3.28;;;;;;;19.13;46.08;102071.09;4970152;29;20031;-94
2023/06/02 10:45:17;;;;;;;9.05;3.15;;;;;;;19.16;47.38;102079.50;4966441;28;20443;-95
2023/06/02 10:47:42;;;;;;;12.97;3.27;;;;;;;19.01;46.73;102069.59;4961584;29;20058;-91
2023/06/02 10:50:14;;;;;;;10.13;2.80;;;;;;;19.10;46.66;102069.78;4960537;29;20310;-92
2023/06/02 11:06:59;;;;;;;;;;;;;;;;;;;;;
2023/06/02 11:09:43;;;;;;;10.43;3.28;;;;;;;19.75;45.93;102060.38;4997228;28;20129;-90
2023/06/02 11:12:15;;;;;;;14.18;3.00;;;;;;;19.82;47.72;102069.00;4996773;28;20033;-87
2023/06/02 11:15:21;;;;;;;11.25;2.53;;;;;;;20.01;46.19;102075.59;4975213;28;20118;-90
2023/06/02 11:17:59;;;;;;;10.55;2.95;;;;;;;19.96;45.60;102050.13;4983745;28;20035;-88
2023/06/02 11:20:51;;;;;;;12.93;3.10;;;;;;;20.17;46.29;102049.84;4976600;28;20038;-88
2023/06/02 11:23:18;;;;;;;16.40;2.90;;;;;;;20.48;45.11;102048.56;5436669;23;21156;-94
2023/06/02 11:26:05;;;;;;;9.40;2.43;;;;;;;21.32;44.52;102066.81;4971925;28;20031;-96
2023/06/02 11:28:32;;;;;;;10.07;3.20;;;;;;;21.89;42.76;102068.44;5060950;23;20293;-96
2023/06/02 11:54:27;;;;;;;29.70;3.93;;;;;;;20.32;45.36;102053.44;5075267;23;20784;-91
2023/06/02 11:57:05;;;;;;;9.30;3.20;;;;;;;20.66;45.42;102063.28;4988744;28;20045;-92
2023/06/02 11:59:30;;;;;;;9.02;3.63;;;;;;;20.56;44.04;102037.00;4998002;28;20034;-92
2023/06/02 12:02:23;;;;;;;11.00;3.10;;;;;;;21.06;45.82;102052.00;4992329;28;20530;-93
2023/06/02 12:04:51;;;;;;;19.55;4.05;;;;;;;20.42;43.97;102035.06;4992310;28;20191;-90
2023/06/02 12:07:18;;;;;;;12.13;3.95;;;;;;;20.20;44.71;102037.56;4987842;28;20022;-92
2023/06/02 12:09:47;;;;;;;11.90;3.40;;;;;;;20.08;46.92;102032.53;4975957;28;20026;-93
2023/06/02 12:12:13;;;;;;;9.32;3.65;;;;;;;20.04;45.35;102024.16;4993453;28;20057;-91